createdAt,value
2023-04-17T00:07:15.949Z,24.57
2023-04-17T00:17:19.173Z,24.56
2023-04-17T00:27:22.343Z,24.57
2023-04-17T00:37:25.601Z,24.54
2023-04-17T00:47:28.764Z,24.56
2023-04-17T00:57:31.982Z,24.53
2023-04-17T01:07:35.133Z,24.52
2023-04-17T01:17:38.358Z,24.53
2023-04-17T01:27:41.657Z,24.50
2023-04-17T01:37:44.924Z,24.50
2023-04-17T01:47:48.086Z,24.50
2023-04-17T01:57:51.268Z,24.49
2023-04-17T02:07:54.422Z,24.49
2023-04-17T02:17:57.797Z,24.47
2023-04-17T02:28:01.008Z,24.45
2023-04-17T02:38:04.203Z,24.49
2023-04-17T02:48:07.387Z,24.47
2023-04-17T02:58:10.718Z,24.47
2023-04-17T03:08:13.898Z,24.45
2023-04-17T03:18:17.126Z,24.44
2023-04-17T03:28:20.288Z,24.45
2023-04-17T03:38:23.466Z,24.45
2023-04-17T03:48:26.620Z,24.44
2023-04-17T03:58:29.806Z,24.42
2023-04-17T04:08:32.967Z,24.44
2023-04-17T04:18:36.182Z,24.44
2023-04-17T04:28:39.392Z,24.44
2023-04-17T04:38:42.862Z,24.47
2023-04-17T04:48:46.014Z,24.50
2023-04-17T04:58:49.201Z,24.52
2023-04-17T05:08:52.365Z,24.54
2023-04-17T05:18:55.563Z,24.57
2023-04-17T05:28:58.711Z,24.57
2023-04-17T05:39:02.012Z,24.56
2023-04-17T05:49:05.183Z,24.56
2023-04-17T05:59:08.381Z,24.56
2023-04-17T06:09:11.858Z,24.57
2023-04-17T06:19:15.301Z,24.54
2023-04-17T06:29:18.488Z,24.57
2023-04-17T06:39:21.735Z,24.56
2023-04-17T06:49:24.892Z,24.59
2023-04-17T06:59:28.429Z,24.56
2023-04-17T07:09:31.620Z,24.57
2023-04-17T07:19:34.838Z,24.59
2023-04-17T07:29:38.004Z,24.60
2023-04-17T07:39:41.206Z,24.60
2023-04-17T07:49:44.362Z,24.63
2023-04-17T07:59:47.560Z,24.63
2023-04-17T08:09:50.716Z,24.63
2023-04-17T08:19:53.984Z,24.67
2023-04-17T08:29:57.178Z,24.69
2023-04-17T08:40:00.366Z,24.71
2023-04-17T08:50:03.739Z,24.76
2023-04-17T09:00:06.977Z,24.77
2023-04-17T09:10:10.137Z,24.79
2023-04-17T09:20:13.344Z,24.83
2023-04-17T09:30:16.660Z,24.87
2023-04-17T09:40:20.119Z,24.88
2023-04-17T09:50:23.300Z,24.90
2023-04-17T10:00:26.636Z,24.90
2023-04-17T10:10:29.815Z,24.90
2023-04-17T10:20:33.017Z,24.92
2023-04-17T10:30:36.190Z,24.92
2023-04-17T10:40:39.416Z,24.92
2023-04-17T10:50:42.566Z,24.91
2023-04-17T11:00:45.789Z,24.94
2023-04-17T11:10:48.947Z,24.91
2023-04-17T11:20:52.259Z,24.92
2023-04-17T11:30:55.494Z,24.91
2023-04-17T11:40:58.690Z,24.90
2023-04-17T11:51:01.885Z,24.91
2023-04-17T12:01:05.112Z,24.88
2023-04-17T12:11:08.265Z,24.90
2023-04-17T12:21:11.458Z,24.91
2023-04-17T12:31:14.731Z,24.91
2023-04-17T12:41:17.981Z,24.90
2023-04-17T12:51:21.217Z,24.91
2023-04-17T13:01:24.471Z,24.90
2023-04-17T13:11:27.634Z,24.90
2023-04-17T13:21:30.887Z,24.88
2023-04-17T13:31:34.107Z,24.88
2023-04-17T13:41:37.298Z,24.88
2023-04-17T13:51:40.454Z,24.88
2023-04-17T14:01:43.707Z,24.88
2023-04-17T14:11:46.887Z,24.88
2023-04-17T14:21:50.106Z,24.88
2023-04-17T14:31:53.469Z,24.88
2023-04-17T14:41:57.934Z,24.88
2023-04-17T14:51:59.513Z,24.87
2023-04-17T15:02:02.823Z,24.87
2023-04-17T15:12:06.113Z,24.88
2023-04-17T15:22:09.373Z,24.88
2023-04-17T15:32:12.538Z,24.88
2023-04-17T15:42:15.968Z,24.85
2023-04-17T15:52:19.136Z,24.87
2023-04-17T16:02:22.520Z,24.87
2023-04-17T16:12:25.793Z,24.85
2023-04-17T16:22:28.991Z,24.87
2023-04-17T16:32:32.214Z,24.87
2023-04-17T16:42:35.571Z,24.87
2023-04-17T16:52:38.764Z,24.87
2023-04-17T17:02:42.255Z,24.88
2023-04-17T17:12:45.543Z,24.87
2023-04-17T17:22:48.743Z,24.87
2023-04-17T17:32:51.958Z,24.87
2023-04-17T17:42:55.520Z,24.85
2023-04-17T18:03:50.799Z,24.85
2023-04-17T18:13:54.046Z,24.85
2023-04-17T18:23:57.239Z,24.83
2023-04-17T18:34:00.392Z,24.85
2023-04-17T18:44:03.598Z,24.83
2023-04-17T18:54:06.741Z,24.82
2023-04-17T19:04:09.975Z,24.83
2023-04-17T19:14:13.389Z,24.85
2023-04-17T19:24:16.822Z,24.83
2023-04-17T19:34:19.970Z,24.82
2023-04-17T19:44:23.246Z,24.83
2023-04-17T19:54:31.337Z,24.82
2023-04-17T20:15:21.189Z,24.82
2023-04-17T20:25:24.397Z,24.82
2023-04-17T20:35:27.591Z,24.83
2023-04-17T20:45:30.754Z,24.82
2023-04-17T20:55:33.959Z,24.83
2023-04-17T21:05:37.126Z,24.82
2023-04-17T21:15:40.317Z,24.80
2023-04-17T21:25:43.489Z,24.82
2023-04-17T21:35:46.691Z,24.80
2023-04-17T21:45:50.145Z,24.82
2023-04-17T21:55:53.461Z,24.82
2023-04-17T22:05:56.766Z,24.82
2023-04-17T22:16:00.095Z,24.82
2023-04-17T22:26:03.249Z,24.80
2023-04-17T22:36:06.452Z,24.82
2023-04-17T22:46:09.636Z,24.80
2023-04-17T22:56:12.838Z,24.79
2023-04-17T23:06:15.999Z,24.80
2023-04-17T23:16:19.240Z,24.79
2023-04-17T23:26:22.433Z,24.79
2023-04-17T23:36:25.656Z,24.79
2023-04-17T23:46:28.856Z,24.77
2023-04-17T23:56:32.060Z,24.77
